Time;durP1;ratioP1;P1;durP2;ratioP2;P2;SDS_P1;SDS_P2;PMS_P1;PMS_P2;Temp;Humidity;BMP_temperature;BMP_pressure;BME280_temperature;BME280_humidity;BME280_pressure;Samples;Min_cycle;Max_cycle;Signal;HPM_P1;HPM_P2
2022/11/07 00:00:59;;;;;;;;;;;;;;;;;;4899866;29;19969;-87
2022/11/07 00:03:25;;;;;;;;;;;;;;;;;;4899999;29;19919;-86
2022/11/07 00:05:50;;;;;;;;;;;;;;;;;;4899690;29;19967;-86
2022/11/07 00:08:16;;;;;;;;;;;;;;;;;;4899871;29;20364;-86
2022/11/07 00:10:42;;;;;;;;;;;;;;;;;;4908486;29;19927;-86
2022/11/07 00:13:07;;;;;;;;;;;;;;;;;;4925342;29;19927;-86
2022/11/07 00:15:32;;;;;;;;;;;;;;;;;;4922034;29;19919;-87
2022/11/07 00:17:58;;;;;;;;;;;;;;;;;;4919236;29;19919;-87
2022/11/07 00:20:23;;;;;;;;;;;;;;;;;;4919076;29;19929;-87
2022/11/07 00:22:49;;;;;;;;;;;;;;;;;;4918221;29;20331;-87
2022/11/07 00:25:14;;;;;;;;;;;;;;;;;;4918353;29;19962;-85
2022/11/07 00:27:40;;;;;;;;;;;;;;;;;;4917311;29;19924;-88
2022/11/07 00:30:05;;;;;;;;;;;;;;;;;;4917982;29;20045;-87
2022/11/07 00:32:31;;;;;;;;;;;;;;;;;;4916909;29;20302;-86
2022/11/07 00:34:56;;;;;;;;;;;;;;;;;;4917905;29;19926;-87
2022/11/07 00:37:21;;;;;;;;;;;;;;;;;;4917035;29;20399;-86
2022/11/07 00:39:47;;;;;;;;;;;;;;;;;;4918070;29;20375;-87
2022/11/07 00:42:12;;;;;;;;;;;;;;;;;;4918318;29;20368;-85
2022/11/07 00:44:38;;;;;;;;;;;;;;;;;;4910609;29;19978;-87
2022/11/07 00:47:03;;;;;;;;;;;;;;;;;;4897594;29;20391;-86
2022/11/07 00:49:28;;;;;;;;;;;;;;;;;;4898931;29;20372;-86
2022/11/07 00:51:54;;;;;;;;;;;;;;;;;;4898819;29;19923;-87
2022/11/07 00:54:19;;;;;;;;;;;;;;;;;;4897711;29;20368;-86
2022/11/07 00:56:45;;;;;;;;;;;;;;;;;;4897632;29;19920;-85
2022/11/07 00:59:11;;;;;;;;;;;;;;;;;;4897507;29;20464;-86
2022/11/07 01:01:37;;;;;;;;;;;;;;;;;;4906313;29;20019;-85
2022/11/07 01:06:47;;;;;;;;;;;;;;;;;;4917501;29;19946;-86
2022/11/07 01:09:14;;;;;;;;;;;;;;;;;;4916432;29;20403;-85
2022/11/07 01:11:40;;;;;;;;;;;;;;;;;;4916416;29;20430;-86
2022/11/07 01:14:06;;;;;;;;;;;;;;;;;;4917585;29;19974;-88
2022/11/07 01:16:34;;;;;;;;;;;;;;;;;;4909637;29;20295;-86
2022/11/07 01:19:00;;;;;;;;;;;;;;;;;;4881394;29;19923;-86
2022/11/07 01:21:25;;;;;;;;;;;;;;;;;;4898401;29;19923;-87
2022/11/07 01:23:51;;;;;;;;;;;;;;;;;;4897099;29;19919;-88
2022/11/07 01:26:16;;;;;;;;;;;;;;;;;;4898473;29;20034;-88
2022/11/07 01:28:42;;;;;;;;;;;;;;;;;;4898158;29;19923;-87
2022/11/07 01:31:09;;;;;;;;;;;;;;;;;;4898272;29;19983;-88
2022/11/07 01:33:34;;;;;;;;;;;;;;;;;;4897064;29;19928;-87
2022/11/07 01:36:10;;;;;;;;;;;;;;;;;;4897386;29;20448;-85
2022/11/07 01:38:38;;;;;;;;;;;;;;;;;;4898004;29;19924;-87
2022/11/07 01:41:23;;;;;;;;;;;;;;;;;;4898096;29;19915;-87
2022/11/07 01:43:56;;;;;;;;;;;;;;;;;;4897871;29;20018;-87
2022/11/07 01:46:25;;;;;;;;;;;;;;;;;;4897733;29;19967;-87
2022/11/07 01:48:56;;;;;;;;;;;;;;;;;;4896734;29;19923;-87
2022/11/07 01:51:21;;;;;;;;;;;;;;;;;;4908968;29;20022;-87
2022/11/07 01:53:47;;;;;;;;;;;;;;;;;;4916751;29;20438;-86
2022/11/07 01:56:14;;;;;;;;;;;;;;;;;;4916516;29;19925;-86
2022/11/07 01:58:40;;;;;;;;;;;;;;;;;;4916613;29;20018;-86
2022/11/07 02:01:06;;;;;;;;;;;;;;;;;;4916463;29;20483;-86
2022/11/07 02:03:32;;;;;;;;;;;;;;;;;;4916391;29;19930;-89
2022/11/07 02:06:02;;;;;;;;;;;;;;;;;;4908867;29;19927;-86
2022/11/07 02:08:29;;;;;;;;;;;;;;;;;;4896186;29;19930;-88
2022/11/07 02:10:55;;;;;;;;;;;;;;;;;;4897692;29;19967;-85
2022/11/07 02:13:25;;;;;;;;;;;;;;;;;;4897663;29;19927;-86
2022/11/07 02:15:50;;;;;;;;;;;;;;;;;;4880611;29;19959;-85
2022/11/07 02:18:16;;;;;;;;;;;;;;;;;;4896116;29;19951;-86
2022/11/07 02:20:42;;;;;;;;;;;;;;;;;;4897371;29;19923;-86
2022/11/07 02:23:08;;;;;;;;;;;;;;;;;;4907998;29;20348;-88
2022/11/07 02:25:35;;;;;;;;;;;;;;;;;;4916297;29;19978;-85
2022/11/07 02:28:02;;;;;;;;;;;;;;;;;;4915590;29;19929;-86
2022/11/07 02:30:29;;;;;;;;;;;;;;;;;;4916145;29;20009;-87
2022/11/07 02:32:55;;;;;;;;;;;;;;;;;;4914743;29;20043;-86
2022/11/07 02:35:40;;;;;;;;;;;;;;;;;;4898934;29;20430;-86
2022/11/07 02:38:08;;;;;;;;;;;;;;;;;;4915714;29;19920;-87
2022/11/07 02:40:33;;;;;;;;;;;;;;;;;;4900389;29;19930;-84
2022/11/07 02:42:59;;;;;;;;;;;;;;;;;;4880140;29;20014;-85
2022/11/07 02:45:29;;;;;;;;;;;;;;;;;;4895578;29;20451;-85
2022/11/07 02:47:54;;;;;;;;;;;;;;;;;;4897114;29;19931;-85
2022/11/07 02:50:20;;;;;;;;;;;;;;;;;;4897142;29;19924;-85
2022/11/07 02:52:45;;;;;;;;;;;;;;;;;;4897077;29;19924;-85
2022/11/07 02:55:11;;;;;;;;;;;;;;;;;;4897149;29;20018;-86
2022/11/07 02:57:37;;;;;;;;;;;;;;;;;;4895973;29;20269;-84
2022/11/07 03:00:03;;;;;;;;;;;;;;;;;;4895751;29;19920;-86
2022/11/07 03:02:28;;;;;;;;;;;;;;;;;;4896904;29;19927;-84
2022/11/07 03:04:54;;;;;;;;;;;;;;;;;;4896599;29;19923;-86
2022/11/07 03:07:19;;;;;;;;;;;;;;;;;;4897044;29;19924;-86
2022/11/07 03:09:45;;;;;;;;;;;;;;;;;;4897001;29;19927;-86
2022/11/07 03:12:10;;;;;;;;;;;;;;;;;;4904644;29;19927;-86
2022/11/07 03:14:36;;;;;;;;;;;;;;;;;;4915711;29;20358;-85
2022/11/07 03:17:01;;;;;;;;;;;;;;;;;;4914298;29;19926;-84
2022/11/07 03:19:27;;;;;;;;;;;;;;;;;;4915836;29;20423;-85
2022/11/07 03:21:52;;;;;;;;;;;;;;;;;;4915586;29;19962;-85
2022/11/07 03:24:17;;;;;;;;;;;;;;;;;;4915827;29;20022;-85
2022/11/07 03:26:43;;;;;;;;;;;;;;;;;;4915876;29;19998;-86
2022/11/07 03:29:08;;;;;;;;;;;;;;;;;;4899143;29;19975;-86
2022/11/07 03:31:34;;;;;;;;;;;;;;;;;;4900414;29;19923;-85
2022/11/07 03:33:59;;;;;;;;;;;;;;;;;;4900174;29;19919;-85
2022/11/07 03:36:25;;;;;;;;;;;;;;;;;;4900333;29;19919;-84
2022/11/07 03:38:50;;;;;;;;;;;;;;;;;;4900383;29;19915;-84
2022/11/07 03:41:17;;;;;;;;;;;;;;;;;;4900194;29;19920;-86
2022/11/07 03:43:44;;;;;;;;;;;;;;;;;;4900317;29;19968;-84
2022/11/07 03:46:10;;;;;;;;;;;;;;;;;;4899948;29;19946;-84
2022/11/07 03:48:35;;;;;;;;;;;;;;;;;;4898769;29;19919;-85
2022/11/07 03:51:01;;;;;;;;;;;;;;;;;;4899949;29;19922;-84
2022/11/07 03:53:26;;;;;;;;;;;;;;;;;;4900139;29;19924;-85
2022/11/07 03:55:53;;;;;;;;;;;;;;;;;;4900042;29;19997;-85
2022/11/07 03:58:18;;;;;;;;;;;;;;;;;;4898783;29;20051;-85
2022/11/07 04:00:44;;;;;;;;;;;;;;;;;;4903571;29;20037;-85
2022/11/07 04:03:09;;;;;;;;;;;;;;;;;;4915533;29;19922;-85
2022/11/07 04:05:35;;;;;;;;;;;;;;;;;;4901818;29;20442;-84
2022/11/07 04:08:00;;;;;;;;;;;;;;;;;;4901938;29;20026;-85
2022/11/07 04:10:25;;;;;;;;;;;;;;;;;;4902062;29;20364;-87
2022/11/07 04:18:20;;;;;;;;;;;;;;;;;;4923339;29;19999;-85
2022/11/07 04:20:46;;;;;;;;;;;;;;;;;;4922983;29;19907;-85
2022/11/07 04:23:11;;;;;;;;;;;;;;;;;;4902349;29;20363;-87
2022/11/07 04:28:21;;;;;;;;;;;;;;;;;;4917775;29;19999;-85
2022/11/07 04:30:46;;;;;;;;;;;;;;;;;;4913319;29;20597;-86
2022/11/07 04:33:11;;;;;;;;;;;;;;;;;;4901152;29;20287;-84
2022/11/07 04:35:37;;;;;;;;;;;;;;;;;;4901292;29;19934;-85
2022/11/07 04:38:02;;;;;;;;;;;;;;;;;;4903817;29;19927;-87
2022/11/07 04:40:28;;;;;;;;;;;;;;;;;;4901338;29;19926;-86
2022/11/07 04:42:54;;;;;;;;;;;;;;;;;;4900332;29;19926;-86
2022/11/07 04:45:19;;;;;;;;;;;;;;;;;;4897874;29;19935;-85
2022/11/07 04:47:45;;;;;;;;;;;;;;;;;;4898810;29;19919;-86
2022/11/07 04:50:12;;;;;;;;;;;;;;;;;;4899977;29;20434;-84
2022/11/07 04:52:37;;;;;;;;;;;;;;;;;;4901223;29;19943;-85
2022/11/07 04:55:03;;;;;;;;;;;;;;;;;;4899269;29;20023;-84
2022/11/07 04:57:29;;;;;;;;;;;;;;;;;;4897942;29;20017;-86
2022/11/07 04:59:54;;;;;;;;;;;;;;;;;;4882679;29;19927;-86
2022/11/07 05:02:21;;;;;;;;;;;;;;;;;;4882342;29;20007;-88
2022/11/07 05:04:47;;;;;;;;;;;;;;;;;;4896820;29;19963;-87
2022/11/07 05:07:12;;;;;;;;;;;;;;;;;;4898631;29;19987;-87
2022/11/07 05:09:38;;;;;;;;;;;;;;;;;;4898223;29;19966;-87
2022/11/07 05:12:04;;;;;;;;;;;;;;;;;;4898801;29;20331;-86
2022/11/07 05:14:30;;;;;;;;;;;;;;;;;;4881684;29;19930;-86
2022/11/07 05:16:56;;;;;;;;;;;;;;;;;;4907634;29;19927;-86
2022/11/07 05:19:21;;;;;;;;;;;;;;;;;;4902425;29;19948;-84
2022/11/07 05:21:46;;;;;;;;;;;;;;;;;;4899403;29;19919;-88
2022/11/07 05:24:12;;;;;;;;;;;;;;;;;;4916976;29;19920;-86
2022/11/07 05:26:38;;;;;;;;;;;;;;;;;;4915447;29;19924;-87
2022/11/07 05:29:04;;;;;;;;;;;;;;;;;;4915369;29;20281;-86
2022/11/07 05:31:29;;;;;;;;;;;;;;;;;;4916693;29;20407;-87
2022/11/07 05:33:55;;;;;;;;;;;;;;;;;;4915482;29;19974;-87
2022/11/07 05:36:22;;;;;;;;;;;;;;;;;;4897783;29;20273;-86
2022/11/07 05:38:48;;;;;;;;;;;;;;;;;;4897710;29;19924;-87
2022/11/07 05:41:15;;;;;;;;;;;;;;;;;;4881010;29;19926;-88
2022/11/07 05:43:40;;;;;;;;;;;;;;;;;;4897960;29;19919;-86
2022/11/07 05:46:06;;;;;;;;;;;;;;;;;;4897603;29;19920;-87
2022/11/07 05:48:32;;;;;;;;;;;;;;;;;;4896095;29;20387;-87
2022/11/07 05:51:00;;;;;;;;;;;;;;;;;;4897098;29;19926;-88
2022/11/07 05:53:26;;;;;;;;;;;;;;;;;;4897442;29;19923;-87
2022/11/07 05:55:52;;;;;;;;;;;;;;;;;;4897540;29;19923;-87
2022/11/07 05:58:18;;;;;;;;;;;;;;;;;;4897495;29;20407;-87
2022/11/07 06:00:44;;;;;;;;;;;;;;;;;;4897414;29;19923;-87
2022/11/07 06:03:10;;;;;;;;;;;;;;;;;;4897424;29;19916;-85
2022/11/07 06:05:39;;;;;;;;;;;;;;;;;;4883508;29;19923;-86
2022/11/07 06:08:05;;;;;;;;;;;;;;;;;;4914090;29;20017;-87
2022/11/07 06:10:31;;;;;;;;;;;;;;;;;;4911595;29;19920;-87
2022/11/07 06:13:00;;;;;;;;;;;;;;;;;;4897323;29;20046;-88
2022/11/07 06:15:26;;;;;;;;;;;;;;;;;;4896841;29;19943;-89
2022/11/07 06:17:52;;;;;;;;;;;;;;;;;;4897069;29;19927;-88
2022/11/07 06:20:17;;;;;;;;;;;;;;;;;;4896981;29;19969;-87
2022/11/07 06:22:42;;;;;;;;;;;;;;;;;;4901080;29;19923;-88
2022/11/07 06:25:08;;;;;;;;;;;;;;;;;;4915827;29;19919;-89
2022/11/07 06:27:33;;;;;;;;;;;;;;;;;;4915489;29;19933;-87
2022/11/07 06:29:59;;;;;;;;;;;;;;;;;;4898723;29;19962;-87
2022/11/07 06:32:24;;;;;;;;;;;;;;;;;;4915860;29;20340;-86
2022/11/07 06:34:50;;;;;;;;;;;;;;;;;;4915683;29;19926;-87
2022/11/07 06:37:16;;;;;;;;;;;;;;;;;;4915715;29;20021;-87
2022/11/07 06:39:41;;;;;;;;;;;;;;;;;;4915524;29;20347;-87
2022/11/07 06:42:06;;;;;;;;;;;;;;;;;;4914219;29;19919;-86
2022/11/07 06:44:32;;;;;;;;;;;;;;;;;;4915464;29;20287;-85
2022/11/07 06:46:57;;;;;;;;;;;;;;;;;;4915609;29;19958;-85
2022/11/07 06:49:23;;;;;;;;;;;;;;;;;;4915772;29;19919;-87
2022/11/07 06:51:48;;;;;;;;;;;;;;;;;;4915503;29;19926;-88
2022/11/07 06:54:13;;;;;;;;;;;;;;;;;;4915827;29;20143;-86
2022/11/07 06:56:39;;;;;;;;;;;;;;;;;;4915614;29;19947;-87
2022/11/07 06:59:04;;;;;;;;;;;;;;;;;;4912449;29;19935;-84
2022/11/07 07:01:30;;;;;;;;;;;;;;;;;;4879878;29;19927;-86
2022/11/07 07:03:55;;;;;;;;;;;;;;;;;;4899625;29;19920;-89
2022/11/07 07:06:21;;;;;;;;;;;;;;;;;;4912387;29;19954;-88
2022/11/07 07:08:46;;;;;;;;;;;;;;;;;;4917989;29;20035;-85
2022/11/07 07:11:12;;;;;;;;;;;;;;;;;;4918001;29;19993;-87
2022/11/07 07:13:38;;;;;;;;;;;;;;;;;;4902021;29;20264;-87
2022/11/07 07:16:04;;;;;;;;;;;;;;;;;;4902216;29;19923;-85
2022/11/07 07:18:30;;;;;;;;;;;;;;;;;;4918166;29;19922;-88
2022/11/07 07:21:06;;;;;;;;;;;;;;;;;;4919332;29;19926;-86
2022/11/07 07:23:33;;;;;;;;;;;;;;;;;;4901853;29;19942;-87
2022/11/07 07:25:59;;;;;;;;;;;;;;;;;;4902022;29;19923;-85
2022/11/07 07:28:25;;;;;;;;;;;;;;;;;;4918834;29;20005;-85
2022/11/07 07:30:50;;;;;;;;;;;;;;;;;;4906103;29;19951;-86
2022/11/07 07:33:15;;;;;;;;;;;;;;;;;;4883144;29;19963;-85
2022/11/07 07:35:41;;;;;;;;;;;;;;;;;;4899902;29;19943;-86
2022/11/07 07:38:06;;;;;;;;;;;;;;;;;;4900053;29;20305;-86
2022/11/07 07:40:32;;;;;;;;;;;;;;;;;;4899931;29;20292;-86
2022/11/07 07:42:57;;;;;;;;;;;;;;;;;;4899845;29;19922;-84
2022/11/07 07:45:22;;;;;;;;;;;;;;;;;;4899871;29;19926;-86
2022/11/07 07:47:48;;;;;;;;;;;;;;;;;;4882941;29;19970;-85
2022/11/07 07:50:13;;;;;;;;;;;;;;;;;;4899911;29;19951;-85
2022/11/07 07:52:39;;;;;;;;;;;;;;;;;;4899422;29;19926;-85
2022/11/07 07:55:07;;;;;;;;;;;;;;;;;;4899692;29;19931;-87
2022/11/07 07:57:37;;;;;;;;;;;;;;;;;;4899541;29;20002;-85
2022/11/07 08:00:02;;;;;;;;;;;;;;;;;;4899438;29;19923;-88
2022/11/07 08:02:28;;;;;;;;;;;;;;;;;;4899431;29;20059;-86
2022/11/07 08:04:53;;;;;;;;;;;;;;;;;;4899732;29;19920;-86
2022/11/07 08:07:19;;;;;;;;;;;;;;;;;;4899603;29;19923;-85
2022/11/07 08:09:44;;;;;;;;;;;;;;;;;;4899649;29;19924;-86
2022/11/07 08:12:10;;;;;;;;;;;;;;;;;;4899901;29;20030;-87
2022/11/07 08:14:35;;;;;;;;;;;;;;;;;;4899151;29;19919;-85
2022/11/07 08:17:01;;;;;;;;;;;;;;;;;;4913760;29;19927;-87
2022/11/07 08:19:26;;;;;;;;;;;;;;;;;;4923114;29;19934;-86
2022/11/07 08:21:51;;;;;;;;;;;;;;;;;;4920979;29;19927;-87
2022/11/07 08:24:17;;;;;;;;;;;;;;;;;;4921812;29;19907;-87
2022/11/07 08:26:43;;;;;;;;;;;;;;;;;;4926803;29;19930;-87
2022/11/07 08:29:08;;;;;;;;;;;;;;;;;;4923287;29;19954;-86
2022/11/07 08:31:33;;;;;;;;;;;;;;;;;;4919482;29;19923;-85
2022/11/07 08:33:59;;;;;;;;;;;;;;;;;;4918170;29;20013;-88
2022/11/07 08:36:25;;;;;;;;;;;;;;;;;;4918474;29;19929;-87
2022/11/07 08:38:51;;;;;;;;;;;;;;;;;;4897799;29;19923;-89
2022/11/07 08:41:16;;;;;;;;;;;;;;;;;;4898042;29;19923;-89
2022/11/07 08:43:41;;;;;;;;;;;;;;;;;;4897616;29;20018;-85
2022/11/07 08:46:07;;;;;;;;;;;;;;;;;;4898990;29;19923;-87
2022/11/07 08:48:32;;;;;;;;;;;;;;;;;;4898970;29;20019;-86
2022/11/07 08:50:58;;;;;;;;;;;;;;;;;;4898909;29;19939;-88
2022/11/07 08:53:24;;;;;;;;;;;;;;;;;;4898651;29;20374;-86
2022/11/07 08:55:50;;;;;;;;;;;;;;;;;;4897474;29;19924;-86
2022/11/07 08:58:15;;;;;;;;;;;;;;;;;;4897996;29;19920;-87
2022/11/07 09:00:41;;;;;;;;;;;;;;;;;;4897766;29;19967;-86
2022/11/07 09:03:07;;;;;;;;;;;;;;;;;;4909301;29;19926;-88
2022/11/07 09:05:33;;;;;;;;;;;;;;;;;;4898302;29;19923;-89
2022/11/07 09:07:59;;;;;;;;;;;;;;;;;;4906883;29;19929;-87
2022/11/07 09:10:24;;;;;;;;;;;;;;;;;;4917384;29;20422;-86
2022/11/07 09:12:51;;;;;;;;;;;;;;;;;;4917092;29;20299;-88
2022/11/07 09:15:17;;;;;;;;;;;;;;;;;;4900306;29;19938;-88
2022/11/07 09:17:45;;;;;;;;;;;;;;;;;;4917100;29;19919;-89
2022/11/07 09:20:12;;;;;;;;;;;;;;;;;;4909981;29;19924;-87
2022/11/07 09:23:15;;;;;;;;;;;;;;;;;;4881234;29;19920;-86
2022/11/07 09:25:40;;;;;;;;;;;;;;;;;;4895964;29;20364;-87
2022/11/07 09:28:06;;;;;;;;;;;;;;;;;;4897673;29;19974;-85
2022/11/07 09:30:31;;;;;;;;;;;;;;;;;;4897788;29;20671;-87
2022/11/07 09:32:57;;;;;;;;;;;;;;;;;;4881090;29;19930;-87
2022/11/07 09:35:22;;;;;;;;;;;;;;;;;;4897640;29;19955;-88
2022/11/07 09:37:49;;;;;;;;;;;;;;;;;;4897551;29;19923;-86
2022/11/07 09:40:21;;;;;;;;;;;;;;;;;;4897683;29;20422;-87
2022/11/07 09:42:53;;;;;;;;;;;;;;;;;;4897715;29;20714;-87
2022/11/07 09:45:18;;;;;;;;;;;;;;;;;;4897229;29;19923;-86
2022/11/07 09:47:45;;;;;;;;;;;;;;;;;;4897371;29;19923;-90
2022/11/07 09:50:14;;;;;;;;;;;;;;;;;;4897133;29;19926;-87
2022/11/07 09:52:57;;;;;;;;;;;;;;;;;;4897664;29;20380;-88
2022/11/07 09:55:27;;;;;;;;;;;;;;;;;;4897592;29;19916;-86
2022/11/07 09:57:54;;;;;;;;;;;;;;;;;;4915359;29;19942;-88
2022/11/07 10:00:20;;;;;;;;;;;;;;;;;;4916401;29;19949;-86
2022/11/07 10:02:47;;;;;;;;;;;;;;;;;;4916363;29;19950;-86
2022/11/07 10:05:14;;;;;;;;;;;;;;;;;;4916175;29;19919;-90
2022/11/07 10:07:46;;;;;;;;;;;;;;;;;;4898860;29;19926;-86
2022/11/07 10:10:17;;;;;;;;;;;;;;;;;;4916069;29;20340;-87
2022/11/07 10:12:52;;;;;;;;;;;;;;;;;;4915824;29;19923;-88
2022/11/07 10:15:21;;;;;;;;;;;;;;;;;;4916111;29;20366;-87
2022/11/07 10:17:53;;;;;;;;;;;;;;;;;;4898660;29;19966;-86
2022/11/07 10:20:32;;;;;;;;;;;;;;;;;;4915834;29;19919;-85
2022/11/07 10:23:02;;;;;;;;;;;;;;;;;;4915848;29;19923;-87
2022/11/07 10:25:39;;;;;;;;;;;;;;;;;;4915520;29;20426;-86
2022/11/07 10:28:12;;;;;;;;;;;;;;;;;;4914121;29;19931;-86
2022/11/07 10:30:38;;;;;;;;;;;;;;;;;;4915787;29;19919;-86
2022/11/07 10:33:18;;;;;;;;;;;;;;;;;;4915682;29;19926;-87
2022/11/07 10:35:46;;;;;;;;;;;;;;;;;;4914107;29;19923;-86
2022/11/07 10:38:31;;;;;;;;;;;;;;;;;;4915563;29;20956;-87
2022/11/07 10:40:56;;;;;;;;;;;;;;;;;;4915772;29;20009;-86
2022/11/07 10:43:22;;;;;;;;;;;;;;;;;;4915454;29;20021;-86
2022/11/07 10:45:47;;;;;;;;;;;;;;;;;;4915237;29;20381;-87
2022/11/07 10:48:13;;;;;;;;;;;;;;;;;;4917995;29;19919;-87
2022/11/07 10:50:38;;;;;;;;;;;;;;;;;;4916827;29;19919;-86
2022/11/07 10:53:08;;;;;;;;;;;;;;;;;;4916080;29;19915;-87
2022/11/07 10:55:44;;;;;;;;;;;;;;;;;;4915345;29;19954;-87
2022/11/07 10:58:17;;;;;;;;;;;;;;;;;;4896919;29;20435;-85
2022/11/07 11:00:43;;;;;;;;;;;;;;;;;;4898497;29;19930;-87
2022/11/07 11:03:23;;;;;;;;;;;;;;;;;;4897428;29;20018;-85
2022/11/07 11:05:49;;;;;;;;;;;;;;;;;;4898402;29;19923;-87
2022/11/07 11:08:19;;;;;;;;;;;;;;;;;;4897063;29;19951;-85
2022/11/07 11:10:46;;;;;;;;;;;;;;;;;;4897048;29;19925;-85
2022/11/07 11:13:31;;;;;;;;;;;;;;;;;;4895318;29;19927;-86
2022/11/07 11:16:00;;;;;;;;;;;;;;;;;;4896981;29;19920;-86
2022/11/07 11:18:25;;;;;;;;;;;;;;;;;;4897233;29;19963;-87
2022/11/07 11:21:00;;;;;;;;;;;;;;;;;;4880076;29;20295;-87
2022/11/07 11:23:28;;;;;;;;;;;;;;;;;;4897057;29;19920;-89
2022/11/07 11:25:58;;;;;;;;;;;;;;;;;;4896591;29;19923;-86
2022/11/07 11:28:43;;;;;;;;;;;;;;;;;;4896952;29;19932;-87
2022/11/07 11:31:11;;;;;;;;;;;;;;;;;;4879697;29;19924;-86
2022/11/07 11:34:09;;;;;;;;;;;;;;;;;;4897029;29;19926;-90
2022/11/07 11:36:35;;;;;;;;;;;;;;;;;;4885128;29;19927;-86
2022/11/07 11:39:02;;;;;;;;;;;;;;;;;;4895511;29;19983;-89
2022/11/07 11:41:34;;;;;;;;;;;;;;;;;;4896852;29;20368;-88
2022/11/07 11:44:11;;;;;;;;;;;;;;;;;;4895310;29;19924;-89
2022/11/07 11:46:41;;;;;;;;;;;;;;;;;;4896611;29;19923;-90
2022/11/07 11:49:32;;;;;;;;;;;;;;;;;;4897148;29;19930;-87
2022/11/07 11:52:00;;;;;;;;;;;;;;;;;;4892474;29;20340;-87
2022/11/07 11:54:25;;;;;;;;;;;;;;;;;;4900064;29;20418;-87
2022/11/07 11:57:03;;;;;;;;;;;;;;;;;;4910345;29;19919;-90
2022/11/07 11:59:36;;;;;;;;;;;;;;;;;;4919493;29;20368;-88
2022/11/07 12:02:20;;;;;;;;;;;;;;;;;;4919658;29;19923;-85
2022/11/07 12:05:08;;;;;;;;;;;;;;;;;;4919058;29;19930;-87
2022/11/07 12:07:52;;;;;;;;;;;;;;;;;;4917586;29;20304;-89
2022/11/07 12:10:20;;;;;;;;;;;;;;;;;;4918818;29;20463;-87
2022/11/07 12:12:49;;;;;;;;;;;;;;;;;;4917057;29;20308;-87
2022/11/07 12:15:36;;;;;;;;;;;;;;;;;;4922385;29;19962;-87
2022/11/07 12:18:22;;;;;;;;;;;;;;;;;;4930958;28;19919;-85
2022/11/07 12:20:59;;;;;;;;;;;;;;;;;;4914694;29;19919;-85
2022/11/07 12:23:54;;;;;;;;;;;;;;;;;;4922834;29;19975;-90
2022/11/07 12:26:32;;;;;;;;;;;;;;;;;;4899972;29;19934;-90
2022/11/07 12:28:58;;;;;;;;;;;;;;;;;;4898754;29;20391;-89
2022/11/07 12:31:38;;;;;;;;;;;;;;;;;;4898823;29;19930;-90
2022/11/07 12:34:13;;;;;;;;;;;;;;;;;;4897648;29;20014;-88
2022/11/07 12:36:42;;;;;;;;;;;;;;;;;;4897013;29;19920;-89
2022/11/07 12:39:16;;;;;;;;;;;;;;;;;;4897554;29;19919;-89
2022/11/07 12:41:44;;;;;;;;;;;;;;;;;;4897320;29;19920;-88
2022/11/07 12:44:15;;;;;;;;;;;;;;;;;;4897063;29;19967;-88
2022/11/07 12:47:00;;;;;;;;;;;;;;;;;;4896566;29;19919;-87
2022/11/07 12:49:34;;;;;;;;;;;;;;;;;;4897342;29;19920;-89
2022/11/07 12:52:09;;;;;;;;;;;;;;;;;;4896696;29;19927;-85
2022/11/07 12:54:53;;;;;;;;;;;;;;;;;;4899858;29;20336;-89
2022/11/07 12:57:23;;;;;;;;;;;;;;;;;;4897251;29;19963;-88
2022/11/07 12:59:57;;;;;;;;;;;;;;;;;;4896596;29;20316;-87
2022/11/07 13:02:29;;;;;;;;;;;;;;;;;;4889293;29;19915;-87
2022/11/07 13:05:14;;;;;;;;;;;;;;;;;;4921715;29;19922;-87
2022/11/07 13:07:45;;;;;;;;;;;;;;;;;;4902389;29;20404;-86
2022/11/07 13:10:34;;;;;;;;;;;;;;;;;;4917687;29;19925;-87
2022/11/07 13:13:09;;;;;;;;;;;;;;;;;;4857807;29;19919;-88
2022/11/07 13:15:36;;;;;;;;;;;;;;;;;;4915697;29;19927;-87
2022/11/07 13:18:12;;;;;;;;;;;;;;;;;;4917630;29;19930;-86
2022/11/07 13:20:38;;;;;;;;;;;;;;;;;;4906874;29;20399;-86
2022/11/07 13:23:12;;;;;;;;;;;;;;;;;;4906397;29;20005;-87
2022/11/07 13:25:39;;;;;;;;;;;;;;;;;;4901692;29;19928;-89
2022/11/07 13:28:40;;;;;;;;;;;;;;;;;;4885737;29;20359;-86
2022/11/07 13:31:25;;;;;;;;;;;;;;;;;;4858001;29;19934;-85
2022/11/07 13:33:50;;;;;;;;;;;;;;;;;;4855429;29;20372;-88
2022/11/07 13:36:26;;;;;;;;;;;;;;;;;;4866304;29;19959;-87
2022/11/07 13:38:53;;;;;;;;;;;;;;;;;;4854267;29;19936;-89
2022/11/07 13:41:19;;;;;;;;;;;;;;;;;;4856537;29;19932;-87
2022/11/07 13:43:50;;;;;;;;;;;;;;;;;;4866724;29;20411;-87
2022/11/07 13:46:23;;;;;;;;;;;;;;;;;;4862376;29;19987;-85
2022/11/07 13:48:56;;;;;;;;;;;;;;;;;;4862385;29;19928;-87
2022/11/07 13:51:25;;;;;;;;;;;;;;;;;;4861389;29;20269;-88
2022/11/07 13:53:53;;;;;;;;;;;;;;;;;;4861879;29;19924;-86
2022/11/07 13:56:23;;;;;;;;;;;;;;;;;;4854271;29;20307;-88
2022/11/07 13:58:50;;;;;;;;;;;;;;;;;;4860363;29;19924;-87
2022/11/07 14:01:17;;;;;;;;;;;;;;;;;;4860065;29;21418;-87
2022/11/07 14:03:43;;;;;;;;;;;;;;;;;;4876854;29;19935;-86
2022/11/07 14:06:11;;;;;;;;;;;;;;;;;;4911587;29;19920;-86
2022/11/07 14:08:38;;;;;;;;;;;;;;;;;;4907841;29;19923;-86
2022/11/07 14:11:14;;;;;;;;;;;;;;;;;;4898693;29;19919;-85
2022/11/07 14:13:39;;;;;;;;;;;;;;;;;;4915884;29;19927;-87
2022/11/07 14:16:20;;;;;;;;;;;;;;;;;;4911611;29;19935;-85
2022/11/07 14:19:12;;;;;;;;;;;;;;;;;;4904995;29;20006;-86
2022/11/07 14:21:37;;;;;;;;;;;;;;;;;;4903078;29;19927;-88
2022/11/07 14:24:16;;;;;;;;;;;;;;;;;;4915903;29;19974;-89
2022/11/07 14:26:42;;;;;;;;;;;;;;;;;;4915928;29;19923;-88
2022/11/07 14:29:07;;;;;;;;;;;;;;;;;;4915580;29;20372;-86
2022/11/07 14:31:34;;;;;;;;;;;;;;;;;;4902051;29;19975;-89
2022/11/07 14:34:00;;;;;;;;;;;;;;;;;;4902920;29;19930;-86
2022/11/07 14:36:27;;;;;;;;;;;;;;;;;;4905344;29;20265;-86
2022/11/07 14:38:54;;;;;;;;;;;;;;;;;;4905435;29;19927;-88
2022/11/07 14:41:20;;;;;;;;;;;;;;;;;;4890805;29;20022;-89
2022/11/07 14:43:46;;;;;;;;;;;;;;;;;;4903670;29;19924;-88
2022/11/07 14:46:18;;;;;;;;;;;;;;;;;;4904254;29;19931;-86
2022/11/07 14:48:44;;;;;;;;;;;;;;;;;;4905075;29;19987;-85
2022/11/07 14:51:14;;;;;;;;;;;;;;;;;;4908695;29;20384;-87
2022/11/07 14:53:47;;;;;;;;;;;;;;;;;;4896971;29;20296;-86
2022/11/07 14:56:16;;;;;;;;;;;;;;;;;;4901425;29;19931;-85
2022/11/07 14:58:41;;;;;;;;;;;;;;;;;;4887545;29;20017;-85
2022/11/07 15:01:07;;;;;;;;;;;;;;;;;;4904725;29;19985;-86
2022/11/07 15:03:33;;;;;;;;;;;;;;;;;;4898398;29;19923;-88
2022/11/07 15:05:59;;;;;;;;;;;;;;;;;;4913501;29;19930;-89
2022/11/07 15:08:26;;;;;;;;;;;;;;;;;;4906975;29;19923;-88
2022/11/07 15:11:03;;;;;;;;;;;;;;;;;;4904792;29;20296;-87
2022/11/07 15:13:32;;;;;;;;;;;;;;;;;;4902820;29;19939;-89
2022/11/07 15:15:58;;;;;;;;;;;;;;;;;;4905253;29;20390;-88
2022/11/07 15:18:25;;;;;;;;;;;;;;;;;;4905194;29;19919;-86
2022/11/07 15:20:55;;;;;;;;;;;;;;;;;;4897900;29;19930;-88
2022/11/07 15:23:21;;;;;;;;;;;;;;;;;;4894790;29;19926;-90
2022/11/07 15:26:08;;;;;;;;;;;;;;;;;;4899123;29;19924;-87
2022/11/07 15:28:42;;;;;;;;;;;;;;;;;;4898883;29;19923;-88
2022/11/07 15:31:23;;;;;;;;;;;;;;;;;;4898621;29;19978;-87
2022/11/07 15:33:49;;;;;;;;;;;;;;;;;;4899227;29;19974;-89
2022/11/07 15:36:14;;;;;;;;;;;;;;;;;;4897696;29;19919;-90
2022/11/07 15:38:40;;;;;;;;;;;;;;;;;;4909542;29;20063;-90
2022/11/07 15:41:05;;;;;;;;;;;;;;;;;;4899230;29;20018;-89
2022/11/07 15:43:31;;;;;;;;;;;;;;;;;;4900028;29;20010;-89
2022/11/07 15:45:56;;;;;;;;;;;;;;;;;;4898926;29;19927;-89
2022/11/07 15:48:25;;;;;;;;;;;;;;;;;;4897719;29;20403;-88
2022/11/07 15:50:50;;;;;;;;;;;;;;;;;;4906600;29;20021;-88
2022/11/07 15:53:28;;;;;;;;;;;;;;;;;;4898061;29;19923;-87
2022/11/07 15:55:55;;;;;;;;;;;;;;;;;;4915365;29;20364;-89
2022/11/07 15:58:21;;;;;;;;;;;;;;;;;;4917687;29;19986;-88
2022/11/07 16:00:47;;;;;;;;;;;;;;;;;;4916898;29;20006;-88
2022/11/07 16:03:14;;;;;;;;;;;;;;;;;;4916140;29;20059;-89
2022/11/07 16:05:39;;;;;;;;;;;;;;;;;;4916098;29;19986;-88
2022/11/07 16:08:06;;;;;;;;;;;;;;;;;;4898069;29;20446;-88
2022/11/07 16:10:32;;;;;;;;;;;;;;;;;;4914098;29;19923;-86
2022/11/07 16:12:57;;;;;;;;;;;;;;;;;;4915366;29;19978;-86
2022/11/07 16:15:24;;;;;;;;;;;;;;;;;;4932859;29;19942;-86
2022/11/07 16:17:49;;;;;;;;;;;;;;;;;;4929131;28;19923;-86
2022/11/07 16:20:15;;;;;;;;;;;;;;;;;;4926297;29;19929;-88
2022/11/07 16:22:41;;;;;;;;;;;;;;;;;;4922157;29;19930;-87
2022/11/07 16:25:06;;;;;;;;;;;;;;;;;;4915077;29;19942;-88
2022/11/07 16:27:32;;;;;;;;;;;;;;;;;;4913673;29;19927;-88
2022/11/07 16:29:57;;;;;;;;;;;;;;;;;;4914686;29;20036;-86
2022/11/07 16:32:22;;;;;;;;;;;;;;;;;;4913692;29;19923;-87
2022/11/07 16:34:48;;;;;;;;;;;;;;;;;;4915336;29;19923;-86
2022/11/07 16:37:13;;;;;;;;;;;;;;;;;;4917180;29;19930;-85
2022/11/07 16:39:39;;;;;;;;;;;;;;;;;;4915176;29;19926;-87
2022/11/07 16:42:04;;;;;;;;;;;;;;;;;;4914603;29;19930;-87
2022/11/07 16:44:29;;;;;;;;;;;;;;;;;;4907614;29;20294;-87
2022/11/07 16:46:55;;;;;;;;;;;;;;;;;;4902695;29;19934;-88
2022/11/07 16:49:31;;;;;;;;;;;;;;;;;;4903298;29;20383;-88
2022/11/07 16:51:57;;;;;;;;;;;;;;;;;;4903275;29;20018;-88
2022/11/07 16:54:22;;;;;;;;;;;;;;;;;;4902809;29;20406;-87
2022/11/07 16:56:51;;;;;;;;;;;;;;;;;;4895235;29;20021;-88
2022/11/07 16:59:18;;;;;;;;;;;;;;;;;;4879269;29;19935;-88
2022/11/07 17:01:43;;;;;;;;;;;;;;;;;;4895114;29;20010;-89
2022/11/07 17:04:09;;;;;;;;;;;;;;;;;;4885484;29;20018;-88